sensor_id;sensor_type;location;lat;lon;timestamp;P1;durP1;ratioP1;P2;durP2;ratioP2
32094;SDS011;18608;53.688;10.748;2023-04-24T00:00:54;7.30;;;4.63;;
32094;SDS011;18608;53.688;10.748;2023-04-24T00:03:21;4.07;;;3.70;;
32094;SDS011;18608;53.688;10.748;2023-04-24T00:05:47;4.67;;;4.20;;
32094;SDS011;18608;53.688;10.748;2023-04-24T00:08:13;5.20;;;4.53;;
32094;SDS011;18608;53.688;10.748;2023-04-24T00:10:39;5.83;;;4.00;;
32094;SDS011;18608;53.688;10.748;2023-04-24T00:13:05;5.17;;;4.00;;
32094;SDS011;18608;53.688;10.748;2023-04-24T00:15:31;9.33;;;4.00;;
32094;SDS011;18608;53.688;10.748;2023-04-24T00:17:58;4.67;;;4.03;;
32094;SDS011;18608;53.688;10.748;2023-04-24T00:20:24;3.70;;;3.47;;
32094;SDS011;18608;53.688;10.748;2023-04-24T00:22:49;6.30;;;4.23;;
32094;SDS011;18608;53.688;10.748;2023-04-24T00:28:38;4.67;;;4.23;;
32094;SDS011;18608;53.688;10.748;2023-04-24T00:31:04;4.63;;;4.20;;
32094;SDS011;18608;53.688;10.748;2023-04-24T00:33:29;4.53;;;4.10;;
32094;SDS011;18608;53.688;10.748;2023-04-24T00:35:55;4.50;;;4.20;;
32094;SDS011;18608;53.688;10.748;2023-04-24T00:38:21;4.90;;;4.40;;
32094;SDS011;18608;53.688;10.748;2023-04-24T00:40:47;4.80;;;4.40;;
32094;SDS011;18608;53.688;10.748;2023-04-24T00:43:15;6.43;;;4.30;;
32094;SDS011;18608;53.688;10.748;2023-04-24T00:45:41;6.13;;;5.03;;
32094;SDS011;18608;53.688;10.748;2023-04-24T00:48:07;4.87;;;4.10;;
32094;SDS011;18608;53.688;10.748;2023-04-24T00:50:35;4.17;;;3.87;;
32094;SDS011;18608;53.688;10.748;2023-04-24T00:53:01;6.50;;;4.77;;
32094;SDS011;18608;53.688;10.748;2023-04-24T00:55:27;10.00;;;5.60;;
32094;SDS011;18608;53.688;10.748;2023-04-24T00:57:53;10.03;;;5.23;;
32094;SDS011;18608;53.688;10.748;2023-04-24T01:00:20;5.47;;;4.97;;
32094;SDS011;18608;53.688;10.748;2023-04-24T01:02:46;7.03;;;5.70;;
32094;SDS011;18608;53.688;10.748;2023-04-24T01:05:13;7.50;;;5.50;;
32094;SDS011;18608;53.688;10.748;2023-04-24T01:07:44;6.10;;;5.50;;
32094;SDS011;18608;53.688;10.748;2023-04-24T01:10:11;9.67;;;5.60;;
32094;SDS011;18608;53.688;10.748;2023-04-24T01:12:38;6.50;;;5.90;;
32094;SDS011;18608;53.688;10.748;2023-04-24T01:15:04;5.97;;;5.40;;
32094;SDS011;18608;53.688;10.748;2023-04-24T01:17:31;8.30;;;5.50;;
32094;SDS011;18608;53.688;10.748;2023-04-24T01:19:57;8.80;;;4.73;;
32094;SDS011;18608;53.688;10.748;2023-04-24T01:22:25;5.50;;;5.03;;
32094;SDS011;18608;53.688;10.748;2023-04-24T01:24:51;8.40;;;5.67;;
32094;SDS011;18608;53.688;10.748;2023-04-24T01:27:18;6.37;;;5.87;;
32094;SDS011;18608;53.688;10.748;2023-04-24T01:29:44;6.27;;;5.47;;
32094;SDS011;18608;53.688;10.748;2023-04-24T01:32:12;8.13;;;5.40;;
32094;SDS011;18608;53.688;10.748;2023-04-24T01:34:39;6.57;;;5.80;;
32094;SDS011;18608;53.688;10.748;2023-04-24T01:37:05;7.73;;;5.23;;
32094;SDS011;18608;53.688;10.748;2023-04-24T01:39:31;7.07;;;6.00;;
32094;SDS011;18608;53.688;10.748;2023-04-24T01:41:58;6.77;;;6.07;;
32094;SDS011;18608;53.688;10.748;2023-04-24T01:44:26;7.03;;;5.13;;
32094;SDS011;18608;53.688;10.748;2023-04-24T01:46:52;7.53;;;6.00;;
32094;SDS011;18608;53.688;10.748;2023-04-24T01:49:20;9.43;;;6.60;;
32094;SDS011;18608;53.688;10.748;2023-04-24T01:51:46;9.37;;;6.33;;
32094;SDS011;18608;53.688;10.748;2023-04-24T01:54:12;9.73;;;5.73;;
32094;SDS011;18608;53.688;10.748;2023-04-24T01:56:41;5.70;;;5.17;;
32094;SDS011;18608;53.688;10.748;2023-04-24T01:59:08;7.20;;;5.60;;
32094;SDS011;18608;53.688;10.748;2023-04-24T02:01:37;7.77;;;6.47;;
32094;SDS011;18608;53.688;10.748;2023-04-24T02:04:04;6.40;;;5.80;;
32094;SDS011;18608;53.688;10.748;2023-04-24T02:06:31;7.10;;;6.23;;
32094;SDS011;18608;53.688;10.748;2023-04-24T02:08:57;6.87;;;6.13;;
32094;SDS011;18608;53.688;10.748;2023-04-24T02:11:24;7.50;;;5.70;;
32094;SDS011;18608;53.688;10.748;2023-04-24T02:13:50;9.40;;;6.60;;
32094;SDS011;18608;53.688;10.748;2023-04-24T02:16:16;8.43;;;7.10;;
32094;SDS011;18608;53.688;10.748;2023-04-24T02:18:42;9.13;;;6.30;;
32094;SDS011;18608;53.688;10.748;2023-04-24T02:21:08;7.57;;;6.70;;
32094;SDS011;18608;53.688;10.748;2023-04-24T02:23:34;7.67;;;6.50;;
32094;SDS011;18608;53.688;10.748;2023-04-24T02:26:00;9.30;;;6.77;;
32094;SDS011;18608;53.688;10.748;2023-04-24T02:28:27;10.00;;;7.30;;
32094;SDS011;18608;53.688;10.748;2023-04-24T02:30:53;12.00;;;7.17;;
32094;SDS011;18608;53.688;10.748;2023-04-24T02:33:19;7.67;;;6.50;;
32094;SDS011;18608;53.688;10.748;2023-04-24T02:35:45;7.40;;;6.40;;
32094;SDS011;18608;53.688;10.748;2023-04-24T02:38:11;10.80;;;6.47;;
32094;SDS011;18608;53.688;10.748;2023-04-24T02:40:37;10.50;;;6.57;;
32094;SDS011;18608;53.688;10.748;2023-04-24T02:43:03;7.57;;;6.20;;
32094;SDS011;18608;53.688;10.748;2023-04-24T02:45:29;10.33;;;7.07;;
32094;SDS011;18608;53.688;10.748;2023-04-24T02:47:55;7.70;;;6.97;;
32094;SDS011;18608;53.688;10.748;2023-04-24T02:50:21;7.97;;;7.23;;
32094;SDS011;18608;53.688;10.748;2023-04-24T02:52:47;7.13;;;6.10;;
32094;SDS011;18608;53.688;10.748;2023-04-24T02:55:13;8.20;;;5.93;;
32094;SDS011;18608;53.688;10.748;2023-04-24T02:57:39;9.27;;;7.90;;
32094;SDS011;18608;53.688;10.748;2023-04-24T03:00:05;7.97;;;6.33;;
32094;SDS011;18608;53.688;10.748;2023-04-24T03:02:32;6.70;;;6.00;;
32094;SDS011;18608;53.688;10.748;2023-04-24T03:04:58;9.00;;;6.23;;
32094;SDS011;18608;53.688;10.748;2023-04-24T03:07:24;8.20;;;6.50;;
32094;SDS011;18608;53.688;10.748;2023-04-24T03:09:50;9.40;;;6.07;;
32094;SDS011;18608;53.688;10.748;2023-04-24T03:12:16;8.10;;;5.90;;
32094;SDS011;18608;53.688;10.748;2023-04-24T03:14:43;8.73;;;6.33;;
32094;SDS011;18608;53.688;10.748;2023-04-24T03:17:09;5.80;;;5.17;;
32094;SDS011;18608;53.688;10.748;2023-04-24T03:19:34;8.60;;;6.50;;
32094;SDS011;18608;53.688;10.748;2023-04-24T03:22:03;7.20;;;5.20;;
32094;SDS011;18608;53.688;10.748;2023-04-24T03:24:29;20.13;;;6.23;;
32094;SDS011;18608;53.688;10.748;2023-04-24T03:26:55;8.77;;;6.90;;
32094;SDS011;18608;53.688;10.748;2023-04-24T03:29:21;14.00;;;5.40;;
32094;SDS011;18608;53.688;10.748;2023-04-24T03:31:47;6.10;;;5.20;;
32094;SDS011;18608;53.688;10.748;2023-04-24T03:34:13;8.23;;;5.70;;
32094;SDS011;18608;53.688;10.748;2023-04-24T03:36:39;8.90;;;6.07;;
32094;SDS011;18608;53.688;10.748;2023-04-24T03:39:05;8.47;;;6.50;;
32094;SDS011;18608;53.688;10.748;2023-04-24T03:41:32;8.00;;;5.87;;
32094;SDS011;18608;53.688;10.748;2023-04-24T03:43:58;7.17;;;5.70;;
32094;SDS011;18608;53.688;10.748;2023-04-24T03:46:24;6.00;;;4.43;;
32094;SDS011;18608;53.688;10.748;2023-04-24T03:48:50;6.93;;;5.13;;
32094;SDS011;18608;53.688;10.748;2023-04-24T03:51:15;5.30;;;4.90;;
32094;SDS011;18608;53.688;10.748;2023-04-24T03:53:41;5.73;;;4.60;;
32094;SDS011;18608;53.688;10.748;2023-04-24T03:56:07;6.03;;;5.50;;
32094;SDS011;18608;53.688;10.748;2023-04-24T03:58:33;6.07;;;4.50;;
32094;SDS011;18608;53.688;10.748;2023-04-24T04:00:59;5.93;;;4.67;;
32094;SDS011;18608;53.688;10.748;2023-04-24T04:03:25;8.00;;;5.17;;
32094;SDS011;18608;53.688;10.748;2023-04-24T04:05:51;5.80;;;4.90;;
32094;SDS011;18608;53.688;10.748;2023-04-24T04:08:18;5.40;;;4.80;;
32094;SDS011;18608;53.688;10.748;2023-04-24T04:10:44;7.07;;;4.87;;
32094;SDS011;18608;53.688;10.748;2023-04-24T04:13:10;11.30;;;8.93;;
32094;SDS011;18608;53.688;10.748;2023-04-24T04:15:36;5.27;;;4.77;;
32094;SDS011;18608;53.688;10.748;2023-04-24T04:18:02;8.20;;;6.23;;
32094;SDS011;18608;53.688;10.748;2023-04-24T04:20:28;6.20;;;5.60;;
32094;SDS011;18608;53.688;10.748;2023-04-24T04:22:54;6.47;;;5.63;;
32094;SDS011;18608;53.688;10.748;2023-04-24T04:25:20;5.40;;;4.67;;
32094;SDS011;18608;53.688;10.748;2023-04-24T04:27:46;6.60;;;5.37;;
32094;SDS011;18608;53.688;10.748;2023-04-24T04:30:16;8.33;;;5.20;;
32094;SDS011;18608;53.688;10.748;2023-04-24T04:32:43;5.60;;;3.73;;
32094;SDS011;18608;53.688;10.748;2023-04-24T04:35:09;4.33;;;3.93;;
32094;SDS011;18608;53.688;10.748;2023-04-24T04:37:35;11.73;;;3.23;;
32094;SDS011;18608;53.688;10.748;2023-04-24T04:40:01;4.10;;;3.80;;
32094;SDS011;18608;53.688;10.748;2023-04-24T04:42:37;3.83;;;3.40;;
32094;SDS011;18608;53.688;10.748;2023-04-24T04:45:07;2.90;;;2.70;;
32094;SDS011;18608;53.688;10.748;2023-04-24T04:47:33;3.87;;;3.57;;
32094;SDS011;18608;53.688;10.748;2023-04-24T04:50:00;3.23;;;3.00;;
32094;SDS011;18608;53.688;10.748;2023-04-24T04:52:26;3.77;;;2.87;;
32094;SDS011;18608;53.688;10.748;2023-04-24T04:54:52;2.53;;;2.40;;
32094;SDS011;18608;53.688;10.748;2023-04-24T04:57:18;5.33;;;2.73;;
32094;SDS011;18608;53.688;10.748;2023-04-24T04:59:45;2.67;;;2.57;;
32094;SDS011;18608;53.688;10.748;2023-04-24T05:02:11;3.37;;;2.33;;
32094;SDS011;18608;53.688;10.748;2023-04-24T05:04:37;1.87;;;1.77;;
32094;SDS011;18608;53.688;10.748;2023-04-24T05:07:03;2.07;;;1.90;;
32094;SDS011;18608;53.688;10.748;2023-04-24T05:09:29;2.33;;;2.13;;
32094;SDS011;18608;53.688;10.748;2023-04-24T05:11:55;2.40;;;2.30;;
32094;SDS011;18608;53.688;10.748;2023-04-24T05:14:21;3.10;;;2.20;;
32094;SDS011;18608;53.688;10.748;2023-04-24T05:16:47;1.63;;;1.53;;
32094;SDS011;18608;53.688;10.748;2023-04-24T05:19:13;2.13;;;1.93;;
32094;SDS011;18608;53.688;10.748;2023-04-24T05:21:40;2.83;;;1.50;;
32094;SDS011;18608;53.688;10.748;2023-04-24T05:24:06;3.07;;;1.93;;
32094;SDS011;18608;53.688;10.748;2023-04-24T05:26:32;1.43;;;1.33;;
32094;SDS011;18608;53.688;10.748;2023-04-24T05:28:57;1.27;;;1.17;;
32094;SDS011;18608;53.688;10.748;2023-04-24T05:31:23;1.43;;;1.33;;
32094;SDS011;18608;53.688;10.748;2023-04-24T05:33:50;1.53;;;1.47;;
32094;SDS011;18608;53.688;10.748;2023-04-24T05:36:16;1.23;;;1.13;;
32094;SDS011;18608;53.688;10.748;2023-04-24T05:38:42;1.53;;;1.43;;
32094;SDS011;18608;53.688;10.748;2023-04-24T05:41:08;2.50;;;1.37;;
32094;SDS011;18608;53.688;10.748;2023-04-24T05:43:34;1.40;;;1.30;;
32094;SDS011;18608;53.688;10.748;2023-04-24T05:46:00;1.73;;;1.50;;
32094;SDS011;18608;53.688;10.748;2023-04-24T05:48:26;4.33;;;1.80;;
32094;SDS011;18608;53.688;10.748;2023-04-24T05:50:52;1.53;;;1.43;;
32094;SDS011;18608;53.688;10.748;2023-04-24T05:53:18;1.40;;;1.30;;
32094;SDS011;18608;53.688;10.748;2023-04-24T05:55:44;1.20;;;1.20;;
32094;SDS011;18608;53.688;10.748;2023-04-24T05:58:11;1.30;;;1.20;;
32094;SDS011;18608;53.688;10.748;2023-04-24T06:00:37;1.07;;;1.07;;
32094;SDS011;18608;53.688;10.748;2023-04-24T06:03:06;1.53;;;1.43;;
32094;SDS011;18608;53.688;10.748;2023-04-24T06:05:32;1.93;;;0.90;;
32094;SDS011;18608;53.688;10.748;2023-04-24T06:07:58;0.80;;;0.80;;
32094;SDS011;18608;53.688;10.748;2023-04-24T06:10:24;1.40;;;1.30;;
32094;SDS011;18608;53.688;10.748;2023-04-24T06:12:50;3.23;;;1.00;;
32094;SDS011;18608;53.688;10.748;2023-04-24T06:15:16;1.00;;;0.97;;
32094;SDS011;18608;53.688;10.748;2023-04-24T06:17:42;2.30;;;1.37;;
32094;SDS011;18608;53.688;10.748;2023-04-24T06:20:08;1.00;;;0.90;;
32094;SDS011;18608;53.688;10.748;2023-04-24T06:22:35;1.50;;;1.17;;
32094;SDS011;18608;53.688;10.748;2023-04-24T06:25:02;1.23;;;1.13;;
32094;SDS011;18608;53.688;10.748;2023-04-24T06:27:28;1.50;;;1.40;;
32094;SDS011;18608;53.688;10.748;2023-04-24T06:29:54;1.30;;;1.20;;
32094;SDS011;18608;53.688;10.748;2023-04-24T06:32:21;1.43;;;1.17;;
32094;SDS011;18608;53.688;10.748;2023-04-24T06:34:47;1.20;;;1.10;;
32094;SDS011;18608;53.688;10.748;2023-04-24T06:37:13;0.90;;;0.90;;
32094;SDS011;18608;53.688;10.748;2023-04-24T06:39:41;1.00;;;1.00;;
32094;SDS011;18608;53.688;10.748;2023-04-24T06:42:07;1.20;;;1.10;;
32094;SDS011;18608;53.688;10.748;2023-04-24T06:44:34;1.10;;;0.93;;
32094;SDS011;18608;53.688;10.748;2023-04-24T06:47:05;1.13;;;1.13;;
32094;SDS011;18608;53.688;10.748;2023-04-24T06:49:31;2.50;;;1.30;;
32094;SDS011;18608;53.688;10.748;2023-04-24T06:51:57;1.40;;;1.30;;
32094;SDS011;18608;53.688;10.748;2023-04-24T06:54:23;2.23;;;1.20;;
32094;SDS011;18608;53.688;10.748;2023-04-24T06:56:49;1.77;;;1.67;;
32094;SDS011;18608;53.688;10.748;2023-04-24T06:59:16;1.40;;;1.40;;
32094;SDS011;18608;53.688;10.748;2023-04-24T07:01:42;1.20;;;1.20;;
32094;SDS011;18608;53.688;10.748;2023-04-24T07:04:08;1.50;;;1.40;;
32094;SDS011;18608;53.688;10.748;2023-04-24T07:06:34;1.50;;;1.40;;
32094;SDS011;18608;53.688;10.748;2023-04-24T07:09:01;1.40;;;1.30;;
32094;SDS011;18608;53.688;10.748;2023-04-24T07:11:28;1.60;;;1.50;;
32094;SDS011;18608;53.688;10.748;2023-04-24T07:13:54;2.60;;;1.30;;
32094;SDS011;18608;53.688;10.748;2023-04-24T07:16:20;1.10;;;1.10;;
32094;SDS011;18608;53.688;10.748;2023-04-24T07:18:46;2.23;;;1.80;;
32094;SDS011;18608;53.688;10.748;2023-04-24T07:21:12;1.60;;;1.50;;
32094;SDS011;18608;53.688;10.748;2023-04-24T07:23:38;1.63;;;1.40;;
32094;SDS011;18608;53.688;10.748;2023-04-24T07:26:06;2.07;;;1.50;;
32094;SDS011;18608;53.688;10.748;2023-04-24T07:28:32;1.80;;;1.70;;
32094;SDS011;18608;53.688;10.748;2023-04-24T07:30:57;1.50;;;1.40;;
32094;SDS011;18608;53.688;10.748;2023-04-24T07:33:24;6.20;;;1.47;;
32094;SDS011;18608;53.688;10.748;2023-04-24T07:35:50;1.73;;;1.63;;
32094;SDS011;18608;53.688;10.748;2023-04-24T07:38:17;1.47;;;1.37;;
32094;SDS011;18608;53.688;10.748;2023-04-24T07:40:46;1.53;;;1.43;;
32094;SDS011;18608;53.688;10.748;2023-04-24T07:43:12;1.63;;;1.53;;
32094;SDS011;18608;53.688;10.748;2023-04-24T07:45:38;1.10;;;1.10;;
32094;SDS011;18608;53.688;10.748;2023-04-24T07:48:04;4.60;;;2.17;;
32094;SDS011;18608;53.688;10.748;2023-04-24T07:50:30;2.60;;;1.60;;
32094;SDS011;18608;53.688;10.748;2023-04-24T07:52:57;1.70;;;1.60;;
32094;SDS011;18608;53.688;10.748;2023-04-24T07:55:23;1.87;;;1.77;;
32094;SDS011;18608;53.688;10.748;2023-04-24T07:57:49;2.27;;;1.77;;
32094;SDS011;18608;53.688;10.748;2023-04-24T08:00:15;1.70;;;1.60;;
32094;SDS011;18608;53.688;10.748;2023-04-24T08:02:41;1.97;;;1.60;;
32094;SDS011;18608;53.688;10.748;2023-04-24T08:05:07;1.90;;;1.80;;
32094;SDS011;18608;53.688;10.748;2023-04-24T08:07:33;1.70;;;1.60;;
32094;SDS011;18608;53.688;10.748;2023-04-24T08:10:00;1.80;;;1.63;;
32094;SDS011;18608;53.688;10.748;2023-04-24T08:12:28;1.80;;;1.70;;
32094;SDS011;18608;53.688;10.748;2023-04-24T08:14:54;1.87;;;1.60;;
32094;SDS011;18608;53.688;10.748;2023-04-24T08:17:20;1.67;;;1.57;;
32094;SDS011;18608;53.688;10.748;2023-04-24T08:19:46;1.73;;;1.63;;
32094;SDS011;18608;53.688;10.748;2023-04-24T08:22:16;2.37;;;2.23;;
32094;SDS011;18608;53.688;10.748;2023-04-24T08:24:42;2.03;;;1.93;;
32094;SDS011;18608;53.688;10.748;2023-04-24T08:27:09;1.03;;;1.00;;
32094;SDS011;18608;53.688;10.748;2023-04-24T08:29:35;1.90;;;1.60;;
32094;SDS011;18608;53.688;10.748;2023-04-24T08:32:01;1.50;;;1.40;;
32094;SDS011;18608;53.688;10.748;2023-04-24T08:34:27;3.70;;;1.47;;
32094;SDS011;18608;53.688;10.748;2023-04-24T08:36:53;1.47;;;1.37;;
32094;SDS011;18608;53.688;10.748;2023-04-24T08:39:19;1.77;;;1.37;;
32094;SDS011;18608;53.688;10.748;2023-04-24T08:41:45;1.30;;;1.20;;
32094;SDS011;18608;53.688;10.748;2023-04-24T08:44:13;1.30;;;1.20;;
32094;SDS011;18608;53.688;10.748;2023-04-24T08:46:41;1.47;;;1.37;;
32094;SDS011;18608;53.688;10.748;2023-04-24T08:49:09;1.40;;;1.23;;
32094;SDS011;18608;53.688;10.748;2023-04-24T08:51:36;1.53;;;1.43;;
32094;SDS011;18608;53.688;10.748;2023-04-24T08:54:02;2.20;;;1.40;;
32094;SDS011;18608;53.688;10.748;2023-04-24T08:56:28;1.20;;;1.10;;
32094;SDS011;18608;53.688;10.748;2023-04-24T08:58:55;1.10;;;1.10;;
32094;SDS011;18608;53.688;10.748;2023-04-24T09:01:22;1.60;;;1.50;;
32094;SDS011;18608;53.688;10.748;2023-04-24T09:03:49;1.43;;;1.33;;
32094;SDS011;18608;53.688;10.748;2023-04-24T09:06:17;1.30;;;1.20;;
32094;SDS011;18608;53.688;10.748;2023-04-24T09:08:44;1.63;;;1.53;;
32094;SDS011;18608;53.688;10.748;2023-04-24T09:11:10;2.30;;;1.20;;
32094;SDS011;18608;53.688;10.748;2023-04-24T09:13:37;5.20;;;1.10;;
32094;SDS011;18608;53.688;10.748;2023-04-24T09:16:03;1.07;;;1.00;;
32094;SDS011;18608;53.688;10.748;2023-04-24T09:18:29;1.77;;;1.20;;
32094;SDS011;18608;53.688;10.748;2023-04-24T09:21:02;2.83;;;1.07;;
32094;SDS011;18608;53.688;10.748;2023-04-24T09:23:31;1.33;;;1.00;;
32094;SDS011;18608;53.688;10.748;2023-04-24T09:25:58;8.53;;;1.10;;
32094;SDS011;18608;53.688;10.748;2023-04-24T09:28:26;2.30;;;1.33;;
32094;SDS011;18608;53.688;10.748;2023-04-24T09:31:02;3.73;;;1.47;;
32094;SDS011;18608;53.688;10.748;2023-04-24T09:33:28;2.43;;;1.80;;
32094;SDS011;18608;53.688;10.748;2023-04-24T09:35:54;1.30;;;1.20;;
32094;SDS011;18608;53.688;10.748;2023-04-24T09:38:30;1.60;;;1.50;;
32094;SDS011;18608;53.688;10.748;2023-04-24T09:40:59;1.60;;;1.50;;
32094;SDS011;18608;53.688;10.748;2023-04-24T09:43:26;6.60;;;2.40;;
32094;SDS011;18608;53.688;10.748;2023-04-24T09:45:52;1.90;;;1.80;;
32094;SDS011;18608;53.688;10.748;2023-04-24T09:48:34;3.23;;;2.93;;
32094;SDS011;18608;53.688;10.748;2023-04-24T09:51:02;7.27;;;5.17;;
32094;SDS011;18608;53.688;10.748;2023-04-24T09:53:32;2.63;;;2.40;;
32094;SDS011;18608;53.688;10.748;2023-04-24T09:56:10;1.80;;;1.70;;
32094;SDS011;18608;53.688;10.748;2023-04-24T09:58:38;2.87;;;2.00;;
32094;SDS011;18608;53.688;10.748;2023-04-24T10:01:04;2.80;;;2.60;;
32094;SDS011;18608;53.688;10.748;2023-04-24T10:03:31;3.53;;;3.27;;
32094;SDS011;18608;53.688;10.748;2023-04-24T10:06:04;3.60;;;3.30;;
32094;SDS011;18608;53.688;10.748;2023-04-24T10:08:34;3.90;;;3.50;;
32094;SDS011;18608;53.688;10.748;2023-04-24T10:11:00;3.93;;;3.60;;
32094;SDS011;18608;53.688;10.748;2023-04-24T10:13:27;3.30;;;3.00;;
32094;SDS011;18608;53.688;10.748;2023-04-24T10:15:53;3.93;;;3.60;;
32094;SDS011;18608;53.688;10.748;2023-04-24T10:18:20;3.60;;;3.40;;
32094;SDS011;18608;53.688;10.748;2023-04-24T10:20:47;4.70;;;4.30;;
32094;SDS011;18608;53.688;10.748;2023-04-24T10:23:13;4.90;;;4.43;;
32094;SDS011;18608;53.688;10.748;2023-04-24T10:25:39;5.43;;;4.80;;
32094;SDS011;18608;53.688;10.748;2023-04-24T10:28:06;8.90;;;4.60;;
32094;SDS011;18608;53.688;10.748;2023-04-24T10:30:33;11.20;;;5.03;;
32094;SDS011;18608;53.688;10.748;2023-04-24T10:33:03;6.30;;;5.30;;
32094;SDS011;18608;53.688;10.748;2023-04-24T10:35:30;7.97;;;5.60;;
32094;SDS011;18608;53.688;10.748;2023-04-24T10:37:58;7.43;;;6.57;;
32094;SDS011;18608;53.688;10.748;2023-04-24T10:40:31;9.67;;;6.10;;
32094;SDS011;18608;53.688;10.748;2023-04-24T10:42:59;9.53;;;7.30;;
32094;SDS011;18608;53.688;10.748;2023-04-24T10:45:33;12.10;;;5.17;;
32094;SDS011;18608;53.688;10.748;2023-04-24T10:48:03;5.40;;;4.90;;
32094;SDS011;18608;53.688;10.748;2023-04-24T10:50:44;5.60;;;5.03;;
32094;SDS011;18608;53.688;10.748;2023-04-24T10:53:17;4.77;;;4.37;;
32094;SDS011;18608;53.688;10.748;2023-04-24T10:58:24;7.13;;;5.30;;
32094;SDS011;18608;53.688;10.748;2023-04-24T11:01:00;3.83;;;3.53;;
32094;SDS011;18608;53.688;10.748;2023-04-24T11:03:30;5.00;;;4.03;;
32094;SDS011;18608;53.688;10.748;2023-04-24T11:05:58;6.80;;;4.13;;
32094;SDS011;18608;53.688;10.748;2023-04-24T11:08:43;4.27;;;3.80;;
32094;SDS011;18608;53.688;10.748;2023-04-24T11:11:13;3.67;;;3.37;;
32094;SDS011;18608;53.688;10.748;2023-04-24T11:19:24;4.40;;;4.00;;
32094;SDS011;18608;53.688;10.748;2023-04-24T11:22:00;5.33;;;4.50;;
32094;SDS011;18608;53.688;10.748;2023-04-24T11:26:59;5.00;;;4.20;;
32094;SDS011;18608;53.688;10.748;2023-04-24T11:29:45;6.00;;;5.23;;
32094;SDS011;18608;53.688;10.748;2023-04-24T11:32:16;9.10;;;5.20;;
32094;SDS011;18608;53.688;10.748;2023-04-24T11:37:35;8.47;;;4.83;;
32094;SDS011;18608;53.688;10.748;2023-04-24T11:40:02;4.63;;;4.23;;
32094;SDS011;18608;53.688;10.748;2023-04-24T11:42:39;9.53;;;5.70;;
32094;SDS011;18608;53.688;10.748;2023-04-24T11:45:07;7.97;;;5.50;;
32094;SDS011;18608;53.688;10.748;2023-04-24T11:47:35;7.10;;;5.10;;
32094;SDS011;18608;53.688;10.748;2023-04-24T11:50:01;7.70;;;5.70;;
32094;SDS011;18608;53.688;10.748;2023-04-24T11:52:29;7.90;;;6.77;;
32094;SDS011;18608;53.688;10.748;2023-04-24T11:54:55;7.07;;;6.00;;
32094;SDS011;18608;53.688;10.748;2023-04-24T11:57:21;7.20;;;5.70;;
32094;SDS011;18608;53.688;10.748;2023-04-24T11:59:48;6.90;;;5.70;;
32094;SDS011;18608;53.688;10.748;2023-04-24T12:02:24;5.93;;;5.23;;
32094;SDS011;18608;53.688;10.748;2023-04-24T12:04:53;8.17;;;6.67;;
32094;SDS011;18608;53.688;10.748;2023-04-24T12:07:19;7.93;;;6.90;;
32094;SDS011;18608;53.688;10.748;2023-04-24T12:10:07;7.87;;;6.20;;
32094;SDS011;18608;53.688;10.748;2023-04-24T12:12:32;6.93;;;5.40;;
32094;SDS011;18608;53.688;10.748;2023-04-24T12:14:58;7.17;;;6.20;;
32094;SDS011;18608;53.688;10.748;2023-04-24T12:17:28;9.00;;;5.80;;
32094;SDS011;18608;53.688;10.748;2023-04-24T12:25:19;8.40;;;5.70;;
32094;SDS011;18608;53.688;10.748;2023-04-24T12:27:47;11.03;;;5.87;;
32094;SDS011;18608;53.688;10.748;2023-04-24T12:30:40;8.80;;;7.20;;
32094;SDS011;18608;53.688;10.748;2023-04-24T12:33:09;7.40;;;5.90;;
32094;SDS011;18608;53.688;10.748;2023-04-24T12:35:35;6.33;;;5.50;;
32094;SDS011;18608;53.688;10.748;2023-04-24T12:38:05;7.37;;;6.00;;
32094;SDS011;18608;53.688;10.748;2023-04-24T12:40:32;7.60;;;6.80;;
32094;SDS011;18608;53.688;10.748;2023-04-24T12:42:59;7.80;;;6.33;;
32094;SDS011;18608;53.688;10.748;2023-04-24T12:45:25;6.80;;;5.47;;
32094;SDS011;18608;53.688;10.748;2023-04-24T12:47:52;5.33;;;4.83;;
32094;SDS011;18608;53.688;10.748;2023-04-24T12:50:18;5.70;;;4.97;;
32094;SDS011;18608;53.688;10.748;2023-04-24T12:52:44;5.23;;;4.73;;
32094;SDS011;18608;53.688;10.748;2023-04-24T12:55:10;5.43;;;4.97;;
32094;SDS011;18608;53.688;10.748;2023-04-24T12:57:38;7.37;;;5.27;;
32094;SDS011;18608;53.688;10.748;2023-04-24T13:00:05;4.90;;;4.50;;
32094;SDS011;18608;53.688;10.748;2023-04-24T13:02:32;7.80;;;5.27;;
32094;SDS011;18608;53.688;10.748;2023-04-24T13:04:58;8.17;;;5.33;;
32094;SDS011;18608;53.688;10.748;2023-04-24T13:07:25;8.33;;;5.43;;
32094;SDS011;18608;53.688;10.748;2023-04-24T13:09:52;6.30;;;5.50;;
32094;SDS011;18608;53.688;10.748;2023-04-24T13:12:19;6.40;;;5.30;;
32094;SDS011;18608;53.688;10.748;2023-04-24T13:14:46;7.17;;;5.23;;
32094;SDS011;18608;53.688;10.748;2023-04-24T13:17:12;5.37;;;4.87;;
32094;SDS011;18608;53.688;10.748;2023-04-24T13:19:41;7.60;;;4.87;;
32094;SDS011;18608;53.688;10.748;2023-04-24T13:22:08;5.70;;;4.47;;
32094;SDS011;18608;53.688;10.748;2023-04-24T13:24:35;6.73;;;5.33;;
32094;SDS011;18608;53.688;10.748;2023-04-24T13:27:02;5.03;;;4.20;;
32094;SDS011;18608;53.688;10.748;2023-04-24T13:29:28;6.73;;;5.13;;
32094;SDS011;18608;53.688;10.748;2023-04-24T13:31:54;5.37;;;4.47;;
32094;SDS011;18608;53.688;10.748;2023-04-24T13:34:24;4.50;;;4.17;;
32094;SDS011;18608;53.688;10.748;2023-04-24T13:36:54;9.23;;;3.60;;
32094;SDS011;18608;53.688;10.748;2023-04-24T13:39:21;5.70;;;4.50;;
32094;SDS011;18608;53.688;10.748;2023-04-24T13:41:47;7.93;;;5.00;;
32094;SDS011;18608;53.688;10.748;2023-04-24T13:44:14;5.43;;;4.97;;
32094;SDS011;18608;53.688;10.748;2023-04-24T13:46:41;4.97;;;4.57;;
32094;SDS011;18608;53.688;10.748;2023-04-24T13:49:08;5.40;;;5.00;;
32094;SDS011;18608;53.688;10.748;2023-04-24T13:51:34;4.70;;;4.30;;
32094;SDS011;18608;53.688;10.748;2023-04-24T13:54:00;9.83;;;5.47;;
32094;SDS011;18608;53.688;10.748;2023-04-24T13:56:26;4.40;;;4.00;;
32094;SDS011;18608;53.688;10.748;2023-04-24T13:58:52;5.03;;;4.53;;
32094;SDS011;18608;53.688;10.748;2023-04-24T14:01:21;10.93;;;6.00;;
32094;SDS011;18608;53.688;10.748;2023-04-24T14:03:53;4.97;;;4.57;;
32094;SDS011;18608;53.688;10.748;2023-04-24T14:06:20;8.07;;;6.37;;
32094;SDS011;18608;53.688;10.748;2023-04-24T14:08:46;10.07;;;5.90;;
32094;SDS011;18608;53.688;10.748;2023-04-24T14:11:12;11.33;;;8.30;;
32094;SDS011;18608;53.688;10.748;2023-04-24T14:13:38;7.23;;;5.80;;
32094;SDS011;18608;53.688;10.748;2023-04-24T14:16:06;5.80;;;5.30;;
32094;SDS011;18608;53.688;10.748;2023-04-24T14:18:31;6.03;;;5.47;;
32094;SDS011;18608;53.688;10.748;2023-04-24T14:20:57;6.87;;;5.67;;
32094;SDS011;18608;53.688;10.748;2023-04-24T14:23:24;5.93;;;5.33;;
32094;SDS011;18608;53.688;10.748;2023-04-24T14:25:49;7.17;;;5.73;;
32094;SDS011;18608;53.688;10.748;2023-04-24T14:28:17;6.60;;;5.53;;
32094;SDS011;18608;53.688;10.748;2023-04-24T14:30:45;8.57;;;6.50;;
32094;SDS011;18608;53.688;10.748;2023-04-24T14:33:11;4.37;;;4.07;;
32094;SDS011;18608;53.688;10.748;2023-04-24T14:35:38;8.43;;;4.80;;
32094;SDS011;18608;53.688;10.748;2023-04-24T14:38:04;11.37;;;8.10;;
32094;SDS011;18608;53.688;10.748;2023-04-24T14:40:30;19.47;;;6.10;;
32094;SDS011;18608;53.688;10.748;2023-04-24T14:42:57;6.30;;;5.13;;
32094;SDS011;18608;53.688;10.748;2023-04-24T14:45:24;4.70;;;4.20;;
32094;SDS011;18608;53.688;10.748;2023-04-24T14:47:50;8.13;;;6.40;;
32094;SDS011;18608;53.688;10.748;2023-04-24T14:50:16;7.73;;;5.60;;
32094;SDS011;18608;53.688;10.748;2023-04-24T14:52:42;9.13;;;6.73;;
32094;SDS011;18608;53.688;10.748;2023-04-24T14:55:08;4.23;;;4.00;;